sensor_id;sensor_type;location;lat;lon;timestamp;pressure;altitude;pressure_sealevel;temperature;humidity
76195;BME280;64964;48.694;21.206;2023-01-26T00:00:46;98693.28;;;1.01;67.81
76195;BME280;64964;48.694;21.206;2023-01-26T00:03:12;98693.47;;;0.98;68.01
76195;BME280;64964;48.694;21.206;2023-01-26T00:05:39;98692.63;;;0.97;68.09
76195;BME280;64964;48.694;21.206;2023-01-26T00:08:04;98683.16;;;0.96;68.32
76195;BME280;64964;48.694;21.206;2023-01-26T00:10:30;98692.53;;;0.99;68.44
76195;BME280;64964;48.694;21.206;2023-01-26T00:12:55;98686.38;;;1.00;68.38
76195;BME280;64964;48.694;21.206;2023-01-26T00:15:21;98686.47;;;0.98;68.27
76195;BME280;64964;48.694;21.206;2023-01-26T00:17:46;98677.00;;;0.97;68.50
76195;BME280;64964;48.694;21.206;2023-01-26T00:20:12;98684.72;;;0.99;68.31
76195;BME280;64964;48.694;21.206;2023-01-26T00:22:37;98679.50;;;0.99;68.10
76195;BME280;64964;48.694;21.206;2023-01-26T00:25:03;98677.84;;;0.98;68.21
76195;BME280;64964;48.694;21.206;2023-01-26T00:27:28;98677.00;;;0.97;68.33
76195;BME280;64964;48.694;21.206;2023-01-26T00:29:53;98674.41;;;0.97;68.45
76195;BME280;64964;48.694;21.206;2023-01-26T00:32:19;98673.56;;;0.97;68.34
76195;BME280;64964;48.694;21.206;2023-01-26T00:34:44;98667.41;;;0.98;68.19
76195;BME280;64964;48.694;21.206;2023-01-26T00:37:10;98665.75;;;0.97;68.19
76195;BME280;64964;48.694;21.206;2023-01-26T00:39:35;98664.06;;;0.96;68.38
76195;BME280;64964;48.694;21.206;2023-01-26T00:42:00;98668.53;;;0.94;68.36
76195;BME280;64964;48.694;21.206;2023-01-26T00:44:37;98666.75;;;0.94;68.34
76195;BME280;64964;48.694;21.206;2023-01-26T00:47:04;98661.56;;;0.94;68.29
76195;BME280;64964;48.694;21.206;2023-01-26T00:49:29;98661.56;;;0.94;68.44
76195;BME280;64964;48.694;21.206;2023-01-26T00:51:54;98658.97;;;0.94;68.43
76195;BME280;64964;48.694;21.206;2023-01-26T00:54:20;98665.00;;;0.95;68.25
76195;BME280;64964;48.694;21.206;2023-01-26T00:56:45;98664.25;;;0.93;68.08
76195;BME280;64964;48.694;21.206;2023-01-26T00:59:11;98663.44;;;0.92;68.35
76195;BME280;64964;48.694;21.206;2023-01-26T01:01:36;98659.97;;;0.92;68.35
76195;BME280;64964;48.694;21.206;2023-01-26T01:04:01;98653.84;;;0.93;68.49
76195;BME280;64964;48.694;21.206;2023-01-26T01:06:27;98646.78;;;0.95;68.33
76195;BME280;64964;48.694;21.206;2023-01-26T01:08:52;98649.38;;;0.95;67.98
76195;BME280;64964;48.694;21.206;2023-01-26T01:11:18;98647.72;;;0.94;68.08
76195;BME280;64964;48.694;21.206;2023-01-26T01:13:43;98644.28;;;0.93;68.26
76195;BME280;64964;48.694;21.206;2023-01-26T01:16:11;98645.22;;;0.92;68.19
76195;BME280;64964;48.694;21.206;2023-01-26T01:18:38;98638.22;;;0.93;68.29
76195;BME280;64964;48.694;21.206;2023-01-26T01:21:15;98639.13;;;0.92;68.65
76195;BME280;64964;48.694;21.206;2023-01-26T01:23:41;98637.31;;;0.94;68.23
76195;BME280;64964;48.694;21.206;2023-01-26T01:26:08;98633.88;;;0.93;68.26
76195;BME280;64964;48.694;21.206;2023-01-26T01:28:34;98627.81;;;0.93;68.19
76195;BME280;64964;48.694;21.206;2023-01-26T01:31:04;98622.69;;;0.91;68.24
76195;BME280;64964;48.694;21.206;2023-01-26T01:33:30;98630.50;;;0.91;68.44
76195;BME280;64964;48.694;21.206;2023-01-26T01:35:59;98622.69;;;0.91;68.59
76195;BME280;64964;48.694;21.206;2023-01-26T01:38:25;98628.72;;;0.92;68.54
76195;BME280;64964;48.694;21.206;2023-01-26T01:40:52;98622.63;;;0.93;68.72
76195;BME280;64964;48.694;21.206;2023-01-26T01:43:17;98622.63;;;0.93;68.72
76195;BME280;64964;48.694;21.206;2023-01-26T01:45:45;98621.56;;;0.95;68.56
76195;BME280;64964;48.694;21.206;2023-01-26T01:48:17;98619.91;;;0.94;68.49
76195;BME280;64964;48.694;21.206;2023-01-26T01:50:45;98613.88;;;0.94;68.46
76195;BME280;64964;48.694;21.206;2023-01-26T01:53:14;98612.22;;;0.93;68.72
76195;BME280;64964;48.694;21.206;2023-01-26T01:55:42;98610.50;;;0.92;68.90
76195;BME280;64964;48.694;21.206;2023-01-26T01:58:08;98612.22;;;0.93;68.81
76195;BME280;64964;48.694;21.206;2023-01-26T02:00:33;98610.44;;;0.93;68.72
76195;BME280;64964;48.694;21.206;2023-01-26T02:03:06;98606.16;;;0.92;68.78
76195;BME280;64964;48.694;21.206;2023-01-26T02:05:46;98605.31;;;0.92;68.86
76195;BME280;64964;48.694;21.206;2023-01-26T02:08:15;98589.69;;;0.92;68.88
76195;BME280;64964;48.694;21.206;2023-01-26T02:10:45;98596.59;;;0.93;68.75
76195;BME280;64964;48.694;21.206;2023-01-26T02:13:11;98594.06;;;0.91;68.77
76195;BME280;64964;48.694;21.206;2023-01-26T02:15:37;98588.84;;;0.91;68.77
76195;BME280;64964;48.694;21.206;2023-01-26T02:18:03;98587.19;;;0.90;68.76
76195;BME280;64964;48.694;21.206;2023-01-26T02:26:14;98576.94;;;0.87;68.69
76195;BME280;64964;48.694;21.206;2023-01-26T02:28:41;98568.31;;;0.87;68.85
76195;BME280;64964;48.694;21.206;2023-01-26T02:31:08;98568.31;;;0.87;69.02
76195;BME280;64964;48.694;21.206;2023-01-26T02:33:34;98561.34;;;0.87;69.00
76195;BME280;64964;48.694;21.206;2023-01-26T02:36:01;98552.63;;;0.88;68.74
76195;BME280;64964;48.694;21.206;2023-01-26T02:38:40;98550.94;;;0.87;68.75
76195;BME280;64964;48.694;21.206;2023-01-26T02:41:10;98548.25;;;0.89;68.67
76195;BME280;64964;48.694;21.206;2023-01-26T02:43:37;98536.06;;;0.89;68.81
76195;BME280;64964;48.694;21.206;2023-01-26T02:46:03;98549.91;;;0.90;68.89
76195;BME280;64964;48.694;21.206;2023-01-26T02:48:28;98534.19;;;0.91;68.87
76195;BME280;64964;48.694;21.206;2023-01-26T02:51:16;98539.31;;;0.93;68.27
76195;BME280;64964;48.694;21.206;2023-01-26T02:53:42;98537.53;;;0.93;68.51
76195;BME280;64964;48.694;21.206;2023-01-26T02:56:07;98534.00;;;0.94;68.55
76195;BME280;64964;48.694;21.206;2023-01-26T02:58:33;98532.22;;;0.95;68.50
76195;BME280;64964;48.694;21.206;2023-01-26T03:00:58;98527.13;;;0.93;68.32
76195;BME280;64964;48.694;21.206;2023-01-26T03:03:25;98525.47;;;0.92;68.62
76195;BME280;64964;48.694;21.206;2023-01-26T03:06:09;98522.00;;;0.92;68.69
76195;BME280;64964;48.694;21.206;2023-01-26T03:08:34;98521.09;;;0.93;68.88
76195;BME280;64964;48.694;21.206;2023-01-26T03:11:00;98515.97;;;0.91;69.08
76195;BME280;64964;48.694;21.206;2023-01-26T03:13:25;98522.88;;;0.92;68.80
76195;BME280;64964;48.694;21.206;2023-01-26T03:15:51;98523.78;;;0.91;68.95
76195;BME280;64964;48.694;21.206;2023-01-26T03:18:19;98516.91;;;0.90;68.89
76195;BME280;64964;48.694;21.206;2023-01-26T03:21:06;98510.97;;;0.88;68.95
76195;BME280;64964;48.694;21.206;2023-01-26T03:23:50;98507.72;;;0.85;68.84
76195;BME280;64964;48.694;21.206;2023-01-26T03:26:34;98504.28;;;0.84;69.10
76195;BME280;64964;48.694;21.206;2023-01-26T03:29:18;98500.00;;;0.83;68.64
76195;BME280;64964;48.694;21.206;2023-01-26T03:31:44;98495.66;;;0.84;68.83
76195;BME280;64964;48.694;21.206;2023-01-26T03:34:10;98501.69;;;0.84;68.91
76195;BME280;64964;48.694;21.206;2023-01-26T03:36:35;98493.88;;;0.84;68.92
76195;BME280;64964;48.694;21.206;2023-01-26T03:39:03;98492.19;;;0.83;69.24
76195;BME280;64964;48.694;21.206;2023-01-26T03:41:28;98491.34;;;0.83;69.03
76195;BME280;64964;48.694;21.206;2023-01-26T03:44:12;98487.09;;;0.82;68.99
76195;BME280;64964;48.694;21.206;2023-01-26T03:46:56;98488.75;;;0.83;69.09
76195;BME280;64964;48.694;21.206;2023-01-26T03:49:40;98483.53;;;0.83;68.88
76195;BME280;64964;48.694;21.206;2023-01-26T03:52:24;98481.78;;;0.83;69.04
76195;BME280;64964;48.694;21.206;2023-01-26T03:55:08;98480.94;;;0.83;69.20
76195;BME280;64964;48.694;21.206;2023-01-26T03:57:52;98479.16;;;0.83;69.37
76195;BME280;64964;48.694;21.206;2023-01-26T04:00:17;98479.16;;;0.83;69.16
76195;BME280;64964;48.694;21.206;2023-01-26T04:02:42;98480.94;;;0.83;69.13
76195;BME280;64964;48.694;21.206;2023-01-26T04:05:26;98474.91;;;0.82;68.99
76195;BME280;64964;48.694;21.206;2023-01-26T04:08:10;98474.06;;;0.82;69.22
76195;BME280;64964;48.694;21.206;2023-01-26T04:10:52;98478.44;;;0.81;69.32
76195;BME280;64964;48.694;21.206;2023-01-26T04:13:18;98479.16;;;0.83;69.03
76195;BME280;64964;48.694;21.206;2023-01-26T04:16:03;98471.59;;;0.80;69.14
76195;BME280;64964;48.694;21.206;2023-01-26T04:18:48;98473.53;;;0.77;68.91
76195;BME280;64964;48.694;21.206;2023-01-26T04:21:32;98472.59;;;0.78;69.23
76195;BME280;64964;48.694;21.206;2023-01-26T04:23:59;98475.31;;;0.76;69.45
76195;BME280;64964;48.694;21.206;2023-01-26T04:26:29;98472.69;;;0.76;69.51
76195;BME280;64964;48.694;21.206;2023-01-26T04:29:00;98475.19;;;0.78;69.54
76195;BME280;64964;48.694;21.206;2023-01-26T04:31:26;98476.88;;;0.79;69.37
76195;BME280;64964;48.694;21.206;2023-01-26T04:33:52;98470.81;;;0.78;69.56
76195;BME280;64964;48.694;21.206;2023-01-26T04:36:17;98472.59;;;0.78;69.82
76195;BME280;64964;48.694;21.206;2023-01-26T04:38:42;98473.44;;;0.78;69.67
76195;BME280;64964;48.694;21.206;2023-01-26T04:41:08;98476.88;;;0.79;69.64
76195;BME280;64964;48.694;21.206;2023-01-26T04:43:33;98477.69;;;0.79;69.18
76195;BME280;64964;48.694;21.206;2023-01-26T04:46:01;98481.16;;;0.80;69.56
76195;BME280;64964;48.694;21.206;2023-01-26T04:48:27;98478.63;;;0.78;69.58
76195;BME280;64964;48.694;21.206;2023-01-26T04:51:01;98480.41;;;0.78;69.81
76195;BME280;64964;48.694;21.206;2023-01-26T04:53:27;98480.41;;;0.78;69.60
76195;BME280;64964;48.694;21.206;2023-01-26T04:55:54;98482.06;;;0.79;69.65
76195;BME280;64964;48.694;21.206;2023-01-26T04:58:20;98482.91;;;0.79;69.57
76195;BME280;64964;48.694;21.206;2023-01-26T05:00:52;98477.81;;;0.78;69.73
76195;BME280;64964;48.694;21.206;2023-01-26T05:03:18;98472.59;;;0.78;69.72
76195;BME280;64964;48.694;21.206;2023-01-26T05:05:46;98476.88;;;0.79;69.49
76195;BME280;64964;48.694;21.206;2023-01-26T05:08:12;98480.41;;;0.78;69.71
76195;BME280;64964;48.694;21.206;2023-01-26T05:10:37;98467.38;;;0.78;69.46
76195;BME280;64964;48.694;21.206;2023-01-26T05:13:02;98470.28;;;0.73;69.40
76195;BME280;64964;48.694;21.206;2023-01-26T05:15:28;98468.69;;;0.70;69.68
76195;BME280;64964;48.694;21.206;2023-01-26T05:17:53;98470.47;;;0.70;69.68
76195;BME280;64964;48.694;21.206;2023-01-26T05:20:18;98462.66;;;0.70;69.59
76195;BME280;64964;48.694;21.206;2023-01-26T05:22:44;98462.66;;;0.70;70.18
76195;BME280;64964;48.694;21.206;2023-01-26T05:25:09;98460.81;;;0.72;69.89
76195;BME280;64964;48.694;21.206;2023-01-26T05:27:35;98458.22;;;0.72;69.79
76195;BME280;64964;48.694;21.206;2023-01-26T05:30:00;98460.81;;;0.72;69.81
76195;BME280;64964;48.694;21.206;2023-01-26T05:32:29;98459.03;;;0.72;69.89
76195;BME280;64964;48.694;21.206;2023-01-26T05:37:32;98458.09;;;0.73;69.46
76195;BME280;64964;48.694;21.206;2023-01-26T05:39:57;98454.69;;;0.73;69.59
76195;BME280;64964;48.694;21.206;2023-01-26T05:42:23;98459.97;;;0.71;69.59
76195;BME280;64964;48.694;21.206;2023-01-26T05:44:49;98456.53;;;0.71;69.88
76195;BME280;64964;48.694;21.206;2023-01-26T05:47:14;98460.72;;;0.73;69.75
76195;BME280;64964;48.694;21.206;2023-01-26T05:49:40;98456.25;;;0.76;69.88
76195;BME280;64964;48.694;21.206;2023-01-26T05:52:08;98462.19;;;0.78;69.66
76195;BME280;64964;48.694;21.206;2023-01-26T05:54:34;98466.44;;;0.79;69.59
76195;BME280;64964;48.694;21.206;2023-01-26T05:57:00;98464.06;;;0.76;70.19
76195;BME280;64964;48.694;21.206;2023-01-26T05:59:25;98451.97;;;0.74;70.08
76195;BME280;64964;48.694;21.206;2023-01-26T06:01:50;98461.53;;;0.74;70.11
76195;BME280;64964;48.694;21.206;2023-01-26T06:04:16;98459.69;;;0.76;69.86
76195;BME280;64964;48.694;21.206;2023-01-26T06:06:41;98457.09;;;0.76;70.06
76195;BME280;64964;48.694;21.206;2023-01-26T06:09:06;98463.97;;;0.77;70.16
76195;BME280;64964;48.694;21.206;2023-01-26T06:11:32;98463.97;;;0.77;70.04
76195;BME280;64964;48.694;21.206;2023-01-26T06:13:58;98463.97;;;0.77;70.29
76195;BME280;64964;48.694;21.206;2023-01-26T06:16:23;98464.78;;;0.78;70.06
76195;BME280;64964;48.694;21.206;2023-01-26T06:18:48;98458.75;;;0.77;69.90
76195;BME280;64964;48.694;21.206;2023-01-26T06:21:14;98464.78;;;0.78;69.72
76195;BME280;64964;48.694;21.206;2023-01-26T06:23:40;98469.88;;;0.79;69.53
76195;BME280;64964;48.694;21.206;2023-01-26T06:26:05;98469.81;;;0.81;69.05
76195;BME280;64964;48.694;21.206;2023-01-26T06:28:31;98470.53;;;0.83;69.10
76195;BME280;64964;48.694;21.206;2023-01-26T06:31:01;98467.75;;;0.86;68.48
76195;BME280;64964;48.694;21.206;2023-01-26T06:33:27;98468.88;;;0.82;67.35
76195;BME280;64964;48.694;21.206;2023-01-26T06:35:52;98469.69;;;0.82;67.83
76195;BME280;64964;48.694;21.206;2023-01-26T06:38:20;98467.94;;;0.83;67.74
76195;BME280;64964;48.694;21.206;2023-01-26T06:40:46;98465.25;;;0.84;67.08
76195;BME280;64964;48.694;21.206;2023-01-26T06:43:11;98466.09;;;0.85;67.28
76195;BME280;64964;48.694;21.206;2023-01-26T06:45:36;98462.53;;;0.86;67.35
76195;BME280;64964;48.694;21.206;2023-01-26T06:48:02;98466.09;;;0.85;66.64
76195;BME280;64964;48.694;21.206;2023-01-26T06:50:31;98465.03;;;0.87;67.29
76195;BME280;64964;48.694;21.206;2023-01-26T06:52:58;98464.84;;;0.90;67.28
76195;BME280;64964;48.694;21.206;2023-01-26T06:55:36;98464.75;;;0.92;66.76
76195;BME280;64964;48.694;21.206;2023-01-26T06:58:01;98466.31;;;0.94;67.26
76195;BME280;64964;48.694;21.206;2023-01-26T07:00:27;98471.34;;;0.97;67.82
76195;BME280;64964;48.694;21.206;2023-01-26T07:02:52;98464.38;;;0.98;68.05
76195;BME280;64964;48.694;21.206;2023-01-26T07:05:18;98465.09;;;1.00;67.87
76195;BME280;64964;48.694;21.206;2023-01-26T07:07:44;98466.66;;;1.03;67.82
76195;BME280;64964;48.694;21.206;2023-01-26T07:10:10;98460.53;;;1.04;67.72
76195;BME280;64964;48.694;21.206;2023-01-26T07:12:40;98456.16;;;1.04;67.87
76195;BME280;64964;48.694;21.206;2023-01-26T07:15:06;98455.13;;;1.07;68.02
76195;BME280;64964;48.694;21.206;2023-01-26T07:17:31;98452.63;;;1.05;68.03
76195;BME280;64964;48.694;21.206;2023-01-26T07:19:57;98453.47;;;1.06;67.34
76195;BME280;64964;48.694;21.206;2023-01-26T07:22:22;98455.88;;;1.09;67.27
76195;BME280;64964;48.694;21.206;2023-01-26T07:24:47;98455.88;;;1.09;67.11
76195;BME280;64964;48.694;21.206;2023-01-26T07:27:13;98449.72;;;1.10;67.02
76195;BME280;64964;48.694;21.206;2023-01-26T07:29:38;98449.50;;;1.13;67.24
76195;BME280;64964;48.694;21.206;2023-01-26T07:32:03;98444.31;;;1.13;67.15
76195;BME280;64964;48.694;21.206;2023-01-26T07:34:29;98439.97;;;1.13;67.22
76195;BME280;64964;48.694;21.206;2023-01-26T07:36:54;98437.25;;;1.15;67.35
76195;BME280;64964;48.694;21.206;2023-01-26T07:39:19;98445.78;;;1.17;66.95
76195;BME280;64964;48.694;21.206;2023-01-26T07:41:45;98431.94;;;1.16;66.99
76195;BME280;64964;48.694;21.206;2023-01-26T07:44:10;98439.44;;;1.21;66.70
76195;BME280;64964;48.694;21.206;2023-01-26T07:46:36;98440.28;;;1.21;66.65
76195;BME280;64964;48.694;21.206;2023-01-26T07:49:01;98438.59;;;1.20;66.02
76195;BME280;64964;48.694;21.206;2023-01-26T07:51:26;98440.19;;;1.23;66.07
76195;BME280;64964;48.694;21.206;2023-01-26T07:53:52;98453.81;;;1.14;63.63
76195;BME280;64964;48.694;21.206;2023-01-26T07:56:17;98443.16;;;1.17;65.46
76195;BME280;64964;48.694;21.206;2023-01-26T07:58:50;98445.78;;;1.17;65.37
76195;BME280;64964;48.694;21.206;2023-01-26T08:01:15;98445.69;;;1.18;65.56
76195;BME280;64964;48.694;21.206;2023-01-26T08:03:41;98444.94;;;1.16;65.03
76195;BME280;64964;48.694;21.206;2023-01-26T08:06:07;98448.31;;;1.18;65.42
76195;BME280;64964;48.694;21.206;2023-01-26T08:08:33;98449.78;;;1.22;65.58
76195;BME280;64964;48.694;21.206;2023-01-26T08:10:59;98446.13;;;1.25;65.47
76195;BME280;64964;48.694;21.206;2023-01-26T08:13:26;98442.97;;;1.20;64.63
76195;BME280;64964;48.694;21.206;2023-01-26T08:15:52;98443.91;;;1.19;65.07
76195;BME280;64964;48.694;21.206;2023-01-26T08:18:18;98454.16;;;1.22;65.20
76195;BME280;64964;48.694;21.206;2023-01-26T08:20:53;98448.94;;;1.22;64.22
76195;BME280;64964;48.694;21.206;2023-01-26T08:23:19;98452.91;;;1.28;65.28
76195;BME280;64964;48.694;21.206;2023-01-26T08:25:45;98452.59;;;1.32;63.87
76195;BME280;64964;48.694;21.206;2023-01-26T08:28:11;98440.63;;;1.30;63.29
76195;BME280;64964;48.694;21.206;2023-01-26T08:30:36;98444.59;;;1.35;63.57
76195;BME280;64964;48.694;21.206;2023-01-26T08:33:03;98443.34;;;1.41;63.15
76195;BME280;64964;48.694;21.206;2023-01-26T08:35:30;98441.19;;;1.47;62.78
76195;BME280;64964;48.694;21.206;2023-01-26T08:37:56;98432.31;;;1.50;62.36
76195;BME280;64964;48.694;21.206;2023-01-26T08:40:21;98438.06;;;1.55;62.29
76195;BME280;64964;48.694;21.206;2023-01-26T08:42:49;98439.53;;;1.59;61.66
76195;BME280;64964;48.694;21.206;2023-01-26T08:45:14;98427.84;;;1.65;62.11
76195;BME280;64964;48.694;21.206;2023-01-26T08:47:40;98428.28;;;1.71;61.17
76195;BME280;64964;48.694;21.206;2023-01-26T08:50:06;98426.28;;;1.75;60.98
76195;BME280;64964;48.694;21.206;2023-01-26T08:52:31;98430.28;;;1.81;61.36
76195;BME280;64964;48.694;21.206;2023-01-26T08:54:56;98433.59;;;1.83;61.29
76195;BME280;64964;48.694;21.206;2023-01-26T08:57:22;98428.06;;;1.87;61.15
76195;BME280;64964;48.694;21.206;2023-01-26T08:59:47;98432.25;;;1.90;60.87
76195;BME280;64964;48.694;21.206;2023-01-26T09:02:12;98439.03;;;1.92;61.06
76195;BME280;64964;48.694;21.206;2023-01-26T09:04:38;98427.66;;;1.93;60.52
76195;BME280;64964;48.694;21.206;2023-01-26T09:07:03;98427.44;;;1.96;60.10
76195;BME280;64964;48.694;21.206;2023-01-26T09:09:30;98416.91;;;1.98;59.80
76195;BME280;64964;48.694;21.206;2023-01-26T09:11:56;98421.06;;;2.00;59.73
76195;BME280;64964;48.694;21.206;2023-01-26T09:14:21;98409.41;;;2.06;60.25
76195;BME280;64964;48.694;21.206;2023-01-26T09:16:48;98413.47;;;2.10;59.97
76195;BME280;64964;48.694;21.206;2023-01-26T09:19:13;98410.66;;;2.13;58.93
76195;BME280;64964;48.694;21.206;2023-01-26T09:21:38;98406.03;;;2.17;59.60
76195;BME280;64964;48.694;21.206;2023-01-26T09:24:04;98404.78;;;2.22;59.64
76195;BME280;64964;48.694;21.206;2023-01-26T09:26:30;98410.84;;;2.23;59.29
76195;BME280;64964;48.694;21.206;2023-01-26T09:28:55;98410.63;;;2.26;59.23
76195;BME280;64964;48.694;21.206;2023-01-26T09:31:21;98399.13;;;2.29;58.81
76195;BME280;64964;48.694;21.206;2023-01-26T09:33:47;98401.75;;;2.29;58.70
76195;BME280;64964;48.694;21.206;2023-01-26T09:36:13;98402.25;;;2.34;58.63
76195;BME280;64964;48.694;21.206;2023-01-26T09:38:38;98400.25;;;2.37;58.78
76195;BME280;64964;48.694;21.206;2023-01-26T09:43:37;98392.34;;;2.39;58.27
76195;BME280;64964;48.694;21.206;2023-01-26T09:49:12;98376.91;;;2.36;58.30
76195;BME280;64964;48.694;21.206;2023-01-26T09:51:50;98382.44;;;2.31;57.11
76195;BME280;64964;48.694;21.206;2023-01-26T09:56:48;98375.94;;;2.37;59.03
76195;BME280;64964;48.694;21.206;2023-01-26T09:59:33;98373.25;;;2.38;59.11
76195;BME280;64964;48.694;21.206;2023-01-26T10:02:15;98369.44;;;2.42;58.84
76195;BME280;64964;48.694;21.206;2023-01-26T10:04:46;98362.56;;;2.41;58.95
76195;BME280;64964;48.694;21.206;2023-01-26T10:07:14;98368.41;;;2.45;57.15
76195;BME280;64964;48.694;21.206;2023-01-26T10:09:43;98373.41;;;2.48;58.43
76195;BME280;64964;48.694;21.206;2023-01-26T10:12:25;98372.69;;;2.46;56.85
76195;BME280;64964;48.694;21.206;2023-01-26T10:15:20;98367.25;;;2.49;58.43
76195;BME280;64964;48.694;21.206;2023-01-26T10:17:50;98368.19;;;2.48;57.79
76195;BME280;64964;48.694;21.206;2023-01-26T10:20:37;98360.25;;;2.49;57.10
76195;BME280;64964;48.694;21.206;2023-01-26T10:23:08;98359.09;;;2.54;58.41
76195;BME280;64964;48.694;21.206;2023-01-26T10:25:38;98347.94;;;2.52;58.37
76195;BME280;64964;48.694;21.206;2023-01-26T10:28:11;98352.91;;;2.55;57.73
76195;BME280;64964;48.694;21.206;2023-01-26T10:30:39;98350.25;;;2.43;57.21
76195;BME280;64964;48.694;21.206;2023-01-26T10:33:13;98354.75;;;2.41;57.35
76195;BME280;64964;48.694;21.206;2023-01-26T10:35:39;98350.69;;;2.37;58.26
76195;BME280;64964;48.694;21.206;2023-01-26T10:40:53;98347.31;;;2.48;58.71
76195;BME280;64964;48.694;21.206;2023-01-26T10:43:18;98349.38;;;2.56;58.53
76195;BME280;64964;48.694;21.206;2023-01-26T10:45:45;98343.91;;;2.59;58.34
76195;BME280;64964;48.694;21.206;2023-01-26T10:48:19;98339.81;;;2.67;58.20
76195;BME280;64964;48.694;21.206;2023-01-26T10:50:46;98336.16;;;2.70;57.64
76195;BME280;64964;48.694;21.206;2023-01-26T10:53:32;98333.53;;;2.70;57.57
76195;BME280;64964;48.694;21.206;2023-01-26T11:01:11;98320.56;;;2.92;57.67
76195;BME280;64964;48.694;21.206;2023-01-26T11:03:39;98313.00;;;3.00;58.35
76195;BME280;64964;48.694;21.206;2023-01-26T11:06:27;98306.78;;;3.14;58.48
76195;BME280;64964;48.694;21.206;2023-01-26T11:08:53;98311.03;;;3.15;57.79
76195;BME280;64964;48.694;21.206;2023-01-26T11:11:26;98304.50;;;3.21;57.12
76195;BME280;64964;48.694;21.206;2023-01-26T11:14:16;98308.91;;;3.20;57.50
76195;BME280;64964;48.694;21.206;2023-01-26T11:17:18;98291.00;;;3.27;55.73
76195;BME280;64964;48.694;21.206;2023-01-26T11:22:37;98294.63;;;3.13;54.39
76195;BME280;64964;48.694;21.206;2023-01-26T11:33:43;98287.56;;;3.38;55.15
76195;BME280;64964;48.694;21.206;2023-01-26T11:41:57;98271.41;;;3.44;54.79
76195;BME280;64964;48.694;21.206;2023-01-26T11:44:46;98266.53;;;3.50;56.97
76195;BME280;64964;48.694;21.206;2023-01-26T11:52:40;98262.13;;;3.51;55.16
76195;BME280;64964;48.694;21.206;2023-01-26T11:57:46;98249.78;;;3.53;56.47
76195;BME280;64964;48.694;21.206;2023-01-26T12:02:42;98244.56;;;3.53;56.98
76195;BME280;64964;48.694;21.206;2023-01-26T12:05:21;98243.38;;;3.57;56.34
76195;BME280;64964;48.694;21.206;2023-01-26T12:07:59;98241.81;;;3.55;54.93
76195;BME280;64964;48.694;21.206;2023-01-26T12:10:34;98234.81;;;3.66;56.84
76195;BME280;64964;48.694;21.206;2023-01-26T12:15:52;98226.72;;;3.69;55.92
76195;BME280;64964;48.694;21.206;2023-01-26T12:18:42;98224.00;;;3.71;53.66
76195;BME280;64964;48.694;21.206;2023-01-26T12:21:11;98220.53;;;3.70;56.07
76195;BME280;64964;48.694;21.206;2023-01-26T12:23:42;98222.47;;;3.68;55.58
76195;BME280;64964;48.694;21.206;2023-01-26T12:26:13;98227.69;;;3.68;55.07
76195;BME280;64964;48.694;21.206;2023-01-26T12:29:23;98218.91;;;3.24;51.53
76195;BME280;64964;48.694;21.206;2023-01-26T12:32:01;98217.59;;;3.19;54.45
76195;BME280;64964;48.694;21.206;2023-01-26T12:34:31;98222.94;;;3.29;55.67
76195;BME280;64964;48.694;21.206;2023-01-26T12:39:53;98211.53;;;3.30;55.74
76195;BME280;64964;48.694;21.206;2023-01-26T12:42:34;98218.69;;;3.39;55.30
76195;BME280;64964;48.694;21.206;2023-01-26T12:45:11;98212.84;;;3.46;55.74
76195;BME280;64964;48.694;21.206;2023-01-26T12:52:45;98220.78;;;3.34;55.67
76195;BME280;64964;48.694;21.206;2023-01-26T12:55:38;98212.84;;;3.35;55.27
76195;BME280;64964;48.694;21.206;2023-01-26T12:58:12;98218.19;;;3.45;55.77
76195;BME280;64964;48.694;21.206;2023-01-26T13:00:39;98212.72;;;3.48;56.02
76195;BME280;64964;48.694;21.206;2023-01-26T13:03:14;98207.38;;;3.38;54.85
76195;BME280;64964;48.694;21.206;2023-01-26T13:05:55;98208.09;;;3.40;55.54
76195;BME280;64964;48.694;21.206;2023-01-26T13:10:57;98202.16;;;3.16;53.76
76195;BME280;64964;48.694;21.206;2023-01-26T13:18:56;98200.72;;;3.12;55.04
76195;BME280;64964;48.694;21.206;2023-01-26T13:21:41;98201.78;;;3.09;55.67
76195;BME280;64964;48.694;21.206;2023-01-26T13:26:46;98201.44;;;3.25;57.03
76195;BME280;64964;48.694;21.206;2023-01-26T13:34:40;98197.91;;;3.26;55.38
76195;BME280;64964;48.694;21.206;2023-01-26T13:37:13;98199.31;;;3.19;55.95
76195;BME280;64964;48.694;21.206;2023-01-26T13:39:43;98204.16;;;3.12;56.93
76195;BME280;64964;48.694;21.206;2023-01-26T13:42:18;98198.34;;;3.09;57.09
76195;BME280;64964;48.694;21.206;2023-01-26T13:44:50;98194.78;;;3.10;56.74
76195;BME280;64964;48.694;21.206;2023-01-26T13:47:23;98186.84;;;3.11;57.46
76195;BME280;64964;48.694;21.206;2023-01-26T13:49:52;98185.06;;;3.12;57.15
76195;BME280;64964;48.694;21.206;2023-01-26T13:52:19;98189.22;;;3.14;57.22
76195;BME280;64964;48.694;21.206;2023-01-26T13:54:47;98191.56;;;3.17;57.31
76195;BME280;64964;48.694;21.206;2023-01-26T13:57:24;98181.47;;;3.13;56.47
76195;BME280;64964;48.694;21.206;2023-01-26T13:59:52;98182.06;;;3.16;57.62
76195;BME280;64964;48.694;21.206;2023-01-26T14:02:25;98179.94;;;3.10;57.39
76195;BME280;64964;48.694;21.206;2023-01-26T14:04:53;98180.88;;;3.09;57.77
76195;BME280;64964;48.694;21.206;2023-01-26T14:07:24;98178.28;;;3.09;57.51
76195;BME280;64964;48.694;21.206;2023-01-26T14:09:51;98177.22;;;3.12;57.87
76195;BME280;64964;48.694;21.206;2023-01-26T14:12:29;98171.16;;;3.11;57.57
76195;BME280;64964;48.694;21.206;2023-01-26T14:15:01;98165.34;;;3.08;57.85
76195;BME280;64964;48.694;21.206;2023-01-26T14:17:30;98179.81;;;3.12;57.98
76195;BME280;64964;48.694;21.206;2023-01-26T14:19:57;98176.84;;;3.05;57.69
76195;BME280;64964;48.694;21.206;2023-01-26T14:22:24;98179.72;;;3.02;58.01
76195;BME280;64964;48.694;21.206;2023-01-26T14:24:51;98173.88;;;2.98;58.10
76195;BME280;64964;48.694;21.206;2023-01-26T14:27:31;98174.47;;;2.91;58.35
76195;BME280;64964;48.694;21.206;2023-01-26T14:29:58;98178.47;;;2.84;59.01